sensor_id;sensor_type;location;lat;lon;timestamp;P1;durP1;ratioP1;P2;durP2;ratioP2
2662;SDS011;49701;48.072;7.800;2023-08-20T00:00:29;8.80;;;6.20;;
2662;SDS011;49701;48.072;7.800;2023-08-20T00:03:13;9.27;;;6.38;;
2662;SDS011;49701;48.072;7.800;2023-08-20T00:05:39;14.75;;;6.88;;
2662;SDS011;49701;48.072;7.800;2023-08-20T00:08:05;10.43;;;6.38;;
2662;SDS011;49701;48.072;7.800;2023-08-20T00:10:31;8.55;;;6.22;;
2662;SDS011;49701;48.072;7.800;2023-08-20T00:12:58;9.40;;;6.70;;
2662;SDS011;49701;48.072;7.800;2023-08-20T00:15:24;7.55;;;6.38;;
2662;SDS011;49701;48.072;7.800;2023-08-20T00:17:52;12.32;;;6.90;;
2662;SDS011;49701;48.072;7.800;2023-08-20T00:20:19;7.22;;;6.53;;
2662;SDS011;49701;48.072;7.800;2023-08-20T00:22:45;12.35;;;7.25;;
2662;SDS011;49701;48.072;7.800;2023-08-20T00:25:12;10.85;;;7.07;;
2662;SDS011;49701;48.072;7.800;2023-08-20T00:27:39;11.65;;;6.75;;
2662;SDS011;49701;48.072;7.800;2023-08-20T00:30:05;7.65;;;6.63;;
2662;SDS011;49701;48.072;7.800;2023-08-20T00:32:32;8.80;;;6.95;;
2662;SDS011;49701;48.072;7.800;2023-08-20T00:34:57;9.50;;;6.55;;
2662;SDS011;49701;48.072;7.800;2023-08-20T00:37:23;9.90;;;6.18;;
2662;SDS011;49701;48.072;7.800;2023-08-20T00:39:50;8.95;;;6.70;;
2662;SDS011;49701;48.072;7.800;2023-08-20T00:42:15;11.63;;;6.63;;
2662;SDS011;49701;48.072;7.800;2023-08-20T01:56:28;7.57;;;6.85;;
2662;SDS011;49701;48.072;7.800;2023-08-20T01:58:54;7.80;;;7.10;;
2662;SDS011;49701;48.072;7.800;2023-08-20T02:01:19;9.57;;;7.20;;
2662;SDS011;49701;48.072;7.800;2023-08-20T02:03:45;10.38;;;7.07;;
2662;SDS011;49701;48.072;7.800;2023-08-20T02:06:11;8.10;;;6.85;;
2662;SDS011;49701;48.072;7.800;2023-08-20T02:08:36;9.40;;;6.90;;
2662;SDS011;49701;48.072;7.800;2023-08-20T02:11:02;12.18;;;7.07;;
2662;SDS011;49701;48.072;7.800;2023-08-20T02:13:29;8.27;;;7.40;;
2662;SDS011;49701;48.072;7.800;2023-08-20T02:16:02;10.00;;;7.40;;
2662;SDS011;49701;48.072;7.800;2023-08-20T02:18:29;9.50;;;7.18;;
2662;SDS011;49701;48.072;7.800;2023-08-20T02:20:55;11.52;;;7.22;;
2662;SDS011;49701;48.072;7.800;2023-08-20T02:23:21;8.32;;;7.47;;
2662;SDS011;49701;48.072;7.800;2023-08-20T02:25:50;12.27;;;7.32;;
2662;SDS011;49701;48.072;7.800;2023-08-20T02:28:15;8.60;;;7.05;;
2662;SDS011;49701;48.072;7.800;2023-08-20T02:30:45;8.48;;;7.15;;
2662;SDS011;49701;48.072;7.800;2023-08-20T02:33:12;8.70;;;7.10;;
2662;SDS011;49701;48.072;7.800;2023-08-20T02:35:38;8.00;;;7.20;;
2662;SDS011;49701;48.072;7.800;2023-08-20T02:38:04;10.43;;;7.05;;
2662;SDS011;49701;48.072;7.800;2023-08-20T02:40:32;9.00;;;7.43;;
2662;SDS011;49701;48.072;7.800;2023-08-20T02:42:58;9.13;;;7.03;;
2662;SDS011;49701;48.072;7.800;2023-08-20T02:45:23;8.85;;;7.25;;
2662;SDS011;49701;48.072;7.800;2023-08-20T02:47:50;10.38;;;7.63;;
2662;SDS011;49701;48.072;7.800;2023-08-20T02:50:17;10.02;;;7.55;;
2662;SDS011;49701;48.072;7.800;2023-08-20T02:52:43;11.43;;;7.75;;
2662;SDS011;49701;48.072;7.800;2023-08-20T02:55:10;8.48;;;7.43;;
2662;SDS011;49701;48.072;7.800;2023-08-20T02:57:35;10.68;;;8.02;;
2662;SDS011;49701;48.072;7.800;2023-08-20T03:00:01;14.63;;;7.45;;
2662;SDS011;49701;48.072;7.800;2023-08-20T03:02:28;9.38;;;7.05;;
2662;SDS011;49701;48.072;7.800;2023-08-20T03:04:54;11.30;;;7.85;;
2662;SDS011;49701;48.072;7.800;2023-08-20T03:07:21;8.50;;;7.32;;
2662;SDS011;49701;48.072;7.800;2023-08-20T03:09:47;12.02;;;7.40;;
2662;SDS011;49701;48.072;7.800;2023-08-20T03:12:13;10.15;;;7.10;;
2662;SDS011;49701;48.072;7.800;2023-08-20T03:14:39;11.50;;;6.97;;
2662;SDS011;49701;48.072;7.800;2023-08-20T03:17:05;7.35;;;6.60;;
2662;SDS011;49701;48.072;7.800;2023-08-20T03:19:33;9.40;;;7.47;;
2662;SDS011;49701;48.072;7.800;2023-08-20T03:22:06;9.98;;;7.45;;
2662;SDS011;49701;48.072;7.800;2023-08-20T03:24:39;9.13;;;7.10;;
2662;SDS011;49701;48.072;7.800;2023-08-20T03:27:06;11.63;;;7.65;;
2662;SDS011;49701;48.072;7.800;2023-08-20T03:29:32;9.93;;;7.35;;
2662;SDS011;49701;48.072;7.800;2023-08-20T03:32:02;10.82;;;8.05;;
2662;SDS011;49701;48.072;7.800;2023-08-20T03:34:28;9.13;;;7.88;;
2662;SDS011;49701;48.072;7.800;2023-08-20T03:36:56;9.95;;;7.97;;
2662;SDS011;49701;48.072;7.800;2023-08-20T03:39:25;9.55;;;8.35;;
2662;SDS011;49701;48.072;7.800;2023-08-20T03:41:52;11.25;;;7.85;;
2662;SDS011;49701;48.072;7.800;2023-08-20T03:44:18;10.20;;;7.47;;
2662;SDS011;49701;48.072;7.800;2023-08-20T03:46:48;10.68;;;8.00;;
2662;SDS011;49701;48.072;7.800;2023-08-20T03:49:15;10.93;;;7.38;;
2662;SDS011;49701;48.072;7.800;2023-08-20T03:51:42;10.73;;;8.07;;
2662;SDS011;49701;48.072;7.800;2023-08-20T03:54:08;9.27;;;7.30;;
2662;SDS011;49701;48.072;7.800;2023-08-20T03:56:34;9.25;;;6.78;;
2662;SDS011;49701;48.072;7.800;2023-08-20T03:59:00;9.70;;;7.10;;
2662;SDS011;49701;48.072;7.800;2023-08-20T04:01:28;8.30;;;7.20;;
2662;SDS011;49701;48.072;7.800;2023-08-20T04:03:54;10.35;;;7.88;;
2662;SDS011;49701;48.072;7.800;2023-08-20T04:06:20;11.95;;;7.80;;
2662;SDS011;49701;48.072;7.800;2023-08-20T04:08:45;9.45;;;8.25;;
2662;SDS011;49701;48.072;7.800;2023-08-20T04:11:11;11.52;;;7.57;;
2662;SDS011;49701;48.072;7.800;2023-08-20T04:13:39;8.82;;;7.85;;
2662;SDS011;49701;48.072;7.800;2023-08-20T04:16:05;14.13;;;7.47;;
2662;SDS011;49701;48.072;7.800;2023-08-20T04:18:31;8.63;;;7.65;;
2662;SDS011;49701;48.072;7.800;2023-08-20T04:20:57;10.02;;;7.68;;
2662;SDS011;49701;48.072;7.800;2023-08-20T04:23:23;12.27;;;8.20;;
2662;SDS011;49701;48.072;7.800;2023-08-20T04:25:49;9.20;;;8.10;;
2662;SDS011;49701;48.072;7.800;2023-08-20T04:28:15;12.45;;;8.07;;
2662;SDS011;49701;48.072;7.800;2023-08-20T04:30:41;9.23;;;8.05;;
2662;SDS011;49701;48.072;7.800;2023-08-20T04:33:07;12.93;;;7.70;;
2662;SDS011;49701;48.072;7.800;2023-08-20T04:35:33;11.85;;;6.97;;
2662;SDS011;49701;48.072;7.800;2023-08-20T04:37:59;12.63;;;7.50;;
2662;SDS011;49701;48.072;7.800;2023-08-20T04:40:27;9.77;;;7.75;;
2662;SDS011;49701;48.072;7.800;2023-08-20T04:42:52;9.98;;;8.07;;
2662;SDS011;49701;48.072;7.800;2023-08-20T04:45:19;9.65;;;8.23;;
2662;SDS011;49701;48.072;7.800;2023-08-20T04:47:46;10.98;;;8.55;;
2662;SDS011;49701;48.072;7.800;2023-08-20T04:50:12;10.75;;;8.70;;
2662;SDS011;49701;48.072;7.800;2023-08-20T04:52:39;13.65;;;8.88;;
2662;SDS011;49701;48.072;7.800;2023-08-20T04:55:06;10.65;;;8.43;;
2662;SDS011;49701;48.072;7.800;2023-08-20T04:57:33;11.48;;;8.68;;
2662;SDS011;49701;48.072;7.800;2023-08-20T05:00:01;9.75;;;8.38;;
2662;SDS011;49701;48.072;7.800;2023-08-20T05:02:42;10.55;;;8.20;;
2662;SDS011;49701;48.072;7.800;2023-08-20T05:05:11;12.77;;;8.50;;
2662;SDS011;49701;48.072;7.800;2023-08-20T05:07:38;11.50;;;9.18;;
2662;SDS011;49701;48.072;7.800;2023-08-20T05:10:04;9.45;;;7.40;;
2662;SDS011;49701;48.072;7.800;2023-08-20T05:12:30;10.13;;;7.97;;
2662;SDS011;49701;48.072;7.800;2023-08-20T05:14:56;12.23;;;8.20;;
2662;SDS011;49701;48.072;7.800;2023-08-20T05:17:21;9.90;;;8.13;;
2662;SDS011;49701;48.072;7.800;2023-08-20T05:19:48;11.45;;;7.88;;
2662;SDS011;49701;48.072;7.800;2023-08-20T05:22:14;13.63;;;8.40;;
2662;SDS011;49701;48.072;7.800;2023-08-20T05:24:39;9.48;;;8.13;;
2662;SDS011;49701;48.072;7.800;2023-08-20T05:27:06;10.02;;;7.40;;
2662;SDS011;49701;48.072;7.800;2023-08-20T05:29:40;9.77;;;7.10;;
2662;SDS011;49701;48.072;7.800;2023-08-20T05:32:06;9.48;;;7.32;;
2662;SDS011;49701;48.072;7.800;2023-08-20T05:34:33;9.38;;;7.47;;
2662;SDS011;49701;48.072;7.800;2023-08-20T05:36:59;8.85;;;7.70;;
2662;SDS011;49701;48.072;7.800;2023-08-20T05:39:26;9.02;;;6.97;;
2662;SDS011;49701;48.072;7.800;2023-08-20T05:41:53;9.00;;;7.43;;
2662;SDS011;49701;48.072;7.800;2023-08-20T05:44:21;9.73;;;8.13;;
2662;SDS011;49701;48.072;7.800;2023-08-20T05:46:48;9.90;;;7.28;;
2662;SDS011;49701;48.072;7.800;2023-08-20T05:49:14;9.10;;;7.75;;
2662;SDS011;49701;48.072;7.800;2023-08-20T05:51:43;14.60;;;8.27;;
2662;SDS011;49701;48.072;7.800;2023-08-20T05:54:09;10.20;;;7.65;;
2662;SDS011;49701;48.072;7.800;2023-08-20T05:56:37;9.02;;;7.85;;
2662;SDS011;49701;48.072;7.800;2023-08-20T05:59:03;12.38;;;7.68;;
2662;SDS011;49701;48.072;7.800;2023-08-20T06:01:29;12.55;;;8.10;;
2662;SDS011;49701;48.072;7.800;2023-08-20T06:03:55;9.38;;;7.70;;
2662;SDS011;49701;48.072;7.800;2023-08-20T06:28:21;9.00;;;7.78;;
2662;SDS011;49701;48.072;7.800;2023-08-20T06:30:48;10.13;;;7.90;;
2662;SDS011;49701;48.072;7.800;2023-08-20T06:33:13;12.43;;;7.35;;
2662;SDS011;49701;48.072;7.800;2023-08-20T06:52:40;10.10;;;9.10;;
2662;SDS011;49701;48.072;7.800;2023-08-20T06:55:05;12.07;;;9.18;;
2662;SDS011;49701;48.072;7.800;2023-08-20T06:57:31;9.98;;;8.50;;
2662;SDS011;49701;48.072;7.800;2023-08-20T06:59:57;14.25;;;8.63;;
2662;SDS011;49701;48.072;7.800;2023-08-20T07:02:23;10.40;;;8.90;;
2662;SDS011;49701;48.072;7.800;2023-08-20T07:12:06;9.77;;;8.07;;
2662;SDS011;49701;48.072;7.800;2023-08-20T07:14:32;12.75;;;7.88;;
2662;SDS011;49701;48.072;7.800;2023-08-20T07:16:58;10.60;;;7.22;;
2662;SDS011;49701;48.072;7.800;2023-08-20T08:42:07;10.00;;;5.80;;
2662;SDS011;49701;48.072;7.800;2023-08-20T08:44:36;11.45;;;5.78;;
2662;SDS011;49701;48.072;7.800;2023-08-20T08:47:02;8.70;;;6.00;;
2662;SDS011;49701;48.072;7.800;2023-08-20T08:49:30;9.45;;;5.85;;
2662;SDS011;49701;48.072;7.800;2023-08-20T09:01:45;8.77;;;5.43;;
2662;SDS011;49701;48.072;7.800;2023-08-20T09:04:12;7.13;;;5.05;;
2662;SDS011;49701;48.072;7.800;2023-08-20T09:06:44;5.95;;;5.32;;
2662;SDS011;49701;48.072;7.800;2023-08-20T09:09:17;9.68;;;5.00;;
2662;SDS011;49701;48.072;7.800;2023-08-20T09:11:44;8.38;;;5.20;;
2662;SDS011;49701;48.072;7.800;2023-08-20T09:14:23;9.40;;;5.40;;
2662;SDS011;49701;48.072;7.800;2023-08-20T09:16:59;10.13;;;5.25;;
2662;SDS011;49701;48.072;7.800;2023-08-20T09:21:59;7.60;;;5.90;;
2662;SDS011;49701;48.072;7.800;2023-08-20T09:24:26;7.63;;;5.75;;
2662;SDS011;49701;48.072;7.800;2023-08-20T09:26:58;5.80;;;5.07;;
2662;SDS011;49701;48.072;7.800;2023-08-20T09:29:25;10.48;;;5.47;;
2662;SDS011;49701;48.072;7.800;2023-08-20T09:31:51;8.40;;;5.32;;
2662;SDS011;49701;48.072;7.800;2023-08-20T11:30:29;6.50;;;5.00;;
2662;SDS011;49701;48.072;7.800;2023-08-20T11:32:55;7.50;;;4.90;;
2662;SDS011;49701;48.072;7.800;2023-08-20T11:35:21;5.78;;;4.90;;
2662;SDS011;49701;48.072;7.800;2023-08-20T11:37:46;5.70;;;4.97;;
2662;SDS011;49701;48.072;7.800;2023-08-20T11:40:12;6.00;;;5.40;;
2662;SDS011;49701;48.072;7.800;2023-08-20T11:42:38;5.68;;;5.15;;
2662;SDS011;49701;48.072;7.800;2023-08-20T11:45:03;7.40;;;4.85;;
2662;SDS011;49701;48.072;7.800;2023-08-20T11:47:29;10.30;;;5.13;;
2662;SDS011;49701;48.072;7.800;2023-08-20T11:50:04;9.50;;;5.70;;
2662;SDS011;49701;48.072;7.800;2023-08-20T12:04:51;7.85;;;4.93;;
2662;SDS011;49701;48.072;7.800;2023-08-20T12:07:20;5.78;;;4.90;;
2662;SDS011;49701;48.072;7.800;2023-08-20T12:09:58;7.80;;;4.70;;
2662;SDS011;49701;48.072;7.800;2023-08-20T12:12:49;10.05;;;4.50;;
2662;SDS011;49701;48.072;7.800;2023-08-20T12:15:21;8.70;;;4.47;;
2662;SDS011;49701;48.072;7.800;2023-08-20T12:17:57;5.40;;;4.55;;
2662;SDS011;49701;48.072;7.800;2023-08-20T12:20:30;7.50;;;4.43;;
2662;SDS011;49701;48.072;7.800;2023-08-20T12:23:00;6.05;;;4.70;;
2662;SDS011;49701;48.072;7.800;2023-08-20T12:25:31;5.57;;;4.65;;
2662;SDS011;49701;48.072;7.800;2023-08-20T12:27:59;10.02;;;4.70;;
2662;SDS011;49701;48.072;7.800;2023-08-20T12:30:25;7.70;;;5.20;;
2662;SDS011;49701;48.072;7.800;2023-08-20T12:32:51;7.82;;;4.53;;
2662;SDS011;49701;48.072;7.800;2023-08-20T12:35:17;6.30;;;4.72;;
2662;SDS011;49701;48.072;7.800;2023-08-20T12:37:43;5.53;;;4.68;;
2662;SDS011;49701;48.072;7.800;2023-08-20T12:40:09;6.72;;;4.22;;
2662;SDS011;49701;48.072;7.800;2023-08-20T12:42:37;6.55;;;4.15;;
2662;SDS011;49701;48.072;7.800;2023-08-20T12:45:06;8.00;;;4.30;;
2662;SDS011;49701;48.072;7.800;2023-08-20T12:47:33;5.88;;;4.40;;
2662;SDS011;49701;48.072;7.800;2023-08-20T12:49:59;5.10;;;4.25;;
2662;SDS011;49701;48.072;7.800;2023-08-20T12:52:25;5.55;;;3.83;;
2662;SDS011;49701;48.072;7.800;2023-08-20T12:54:51;8.50;;;4.57;;
2662;SDS011;49701;48.072;7.800;2023-08-20T12:57:17;6.97;;;4.00;;
2662;SDS011;49701;48.072;7.800;2023-08-20T12:59:43;6.40;;;4.45;;
2662;SDS011;49701;48.072;7.800;2023-08-20T13:02:10;6.38;;;3.60;;
2662;SDS011;49701;48.072;7.800;2023-08-20T13:04:35;4.30;;;3.90;;
2662;SDS011;49701;48.072;7.800;2023-08-20T13:07:02;7.53;;;3.58;;
2662;SDS011;49701;48.072;7.800;2023-08-20T13:09:28;4.40;;;4.00;;
2662;SDS011;49701;48.072;7.800;2023-08-20T13:11:56;6.47;;;4.18;;
2662;SDS011;49701;48.072;7.800;2023-08-20T13:14:22;5.93;;;4.57;;
2662;SDS011;49701;48.072;7.800;2023-08-20T13:16:48;5.88;;;4.28;;
2662;SDS011;49701;48.072;7.800;2023-08-20T13:19:14;7.78;;;4.20;;
2662;SDS011;49701;48.072;7.800;2023-08-20T13:21:40;4.97;;;4.05;;
2662;SDS011;49701;48.072;7.800;2023-08-20T13:24:06;6.40;;;3.88;;
2662;SDS011;49701;48.072;7.800;2023-08-20T13:26:32;4.82;;;3.90;;
2662;SDS011;49701;48.072;7.800;2023-08-20T13:28:57;5.47;;;4.13;;
2662;SDS011;49701;48.072;7.800;2023-08-20T13:31:23;6.38;;;4.10;;
2662;SDS011;49701;48.072;7.800;2023-08-20T13:33:49;8.13;;;4.05;;
2662;SDS011;49701;48.072;7.800;2023-08-20T13:36:15;7.57;;;4.10;;
2662;SDS011;49701;48.072;7.800;2023-08-20T13:38:41;4.88;;;3.90;;
2662;SDS011;49701;48.072;7.800;2023-08-20T13:41:07;7.22;;;4.28;;
2662;SDS011;49701;48.072;7.800;2023-08-20T13:43:33;5.82;;;4.53;;
2662;SDS011;49701;48.072;7.800;2023-08-20T13:45:59;7.30;;;4.40;;
2662;SDS011;49701;48.072;7.800;2023-08-20T13:48:25;8.15;;;3.95;;
2662;SDS011;49701;48.072;7.800;2023-08-20T13:50:50;8.93;;;4.72;;
2662;SDS011;49701;48.072;7.800;2023-08-20T13:53:16;7.80;;;4.10;;
2662;SDS011;49701;48.072;7.800;2023-08-20T13:55:41;6.38;;;4.20;;
2662;SDS011;49701;48.072;7.800;2023-08-20T13:58:07;5.13;;;4.10;;
2662;SDS011;49701;48.072;7.800;2023-08-20T14:00:33;6.15;;;4.47;;
2662;SDS011;49701;48.072;7.800;2023-08-20T14:02:59;5.57;;;4.38;;
2662;SDS011;49701;48.072;7.800;2023-08-20T14:05:24;5.75;;;3.97;;
2662;SDS011;49701;48.072;7.800;2023-08-20T14:07:50;7.53;;;4.50;;
2662;SDS011;49701;48.072;7.800;2023-08-20T14:10:16;6.88;;;4.43;;
2662;SDS011;49701;48.072;7.800;2023-08-20T14:12:41;6.43;;;4.22;;
2662;SDS011;49701;48.072;7.800;2023-08-20T14:15:08;6.68;;;4.50;;
2662;SDS011;49701;48.072;7.800;2023-08-20T14:17:34;6.93;;;4.88;;
2662;SDS011;49701;48.072;7.800;2023-08-20T14:20:00;6.15;;;4.30;;
2662;SDS011;49701;48.072;7.800;2023-08-20T14:22:25;6.43;;;4.13;;
2662;SDS011;49701;48.072;7.800;2023-08-20T14:24:51;4.72;;;4.22;;
2662;SDS011;49701;48.072;7.800;2023-08-20T14:27:17;6.32;;;4.30;;
2662;SDS011;49701;48.072;7.800;2023-08-20T18:08:50;5.15;;;4.10;;
2662;SDS011;49701;48.072;7.800;2023-08-20T18:11:16;7.32;;;4.10;;
2662;SDS011;49701;48.072;7.800;2023-08-20T18:13:42;7.88;;;4.63;;
2662;SDS011;49701;48.072;7.800;2023-08-20T18:16:08;6.28;;;4.57;;
2662;SDS011;49701;48.072;7.800;2023-08-20T18:18:35;9.35;;;4.63;;
2662;SDS011;49701;48.072;7.800;2023-08-20T18:21:02;8.43;;;4.60;;
2662;SDS011;49701;48.072;7.800;2023-08-20T18:23:27;6.57;;;4.15;;
2662;SDS011;49701;48.072;7.800;2023-08-20T18:25:53;10.52;;;4.70;;
2662;SDS011;49701;48.072;7.800;2023-08-20T18:28:21;8.30;;;4.63;;
2662;SDS011;49701;48.072;7.800;2023-08-20T18:30:50;8.38;;;4.43;;
2662;SDS011;49701;48.072;7.800;2023-08-20T18:33:20;8.95;;;4.55;;
2662;SDS011;49701;48.072;7.800;2023-08-20T18:35:47;5.85;;;4.82;;
2662;SDS011;49701;48.072;7.800;2023-08-20T18:38:55;6.15;;;4.72;;
2662;SDS011;49701;48.072;7.800;2023-08-20T18:41:05;7.10;;;4.65;;
2662;SDS011;49701;48.072;7.800;2023-08-20T19:15:12;6.38;;;5.10;;
2662;SDS011;49701;48.072;7.800;2023-08-20T19:17:38;8.15;;;5.13;;
2662;SDS011;49701;48.072;7.800;2023-08-20T19:20:04;9.40;;;4.82;;
2662;SDS011;49701;48.072;7.800;2023-08-20T19:22:33;6.55;;;5.00;;
2662;SDS011;49701;48.072;7.800;2023-08-20T19:24:59;7.63;;;5.03;;
2662;SDS011;49701;48.072;7.800;2023-08-20T19:27:25;7.63;;;4.75;;
2662;SDS011;49701;48.072;7.800;2023-08-20T19:29:50;8.95;;;5.15;;
2662;SDS011;49701;48.072;7.800;2023-08-20T19:32:16;14.40;;;5.70;;
2662;SDS011;49701;48.072;7.800;2023-08-20T19:34:42;9.55;;;5.10;;
2662;SDS011;49701;48.072;7.800;2023-08-20T19:37:08;9.15;;;5.00;;
2662;SDS011;49701;48.072;7.800;2023-08-20T19:39:33;8.57;;;5.35;;
2662;SDS011;49701;48.072;7.800;2023-08-20T19:41:59;11.27;;;5.20;;
2662;SDS011;49701;48.072;7.800;2023-08-20T19:44:26;7.65;;;5.30;;
2662;SDS011;49701;48.072;7.800;2023-08-20T19:46:52;9.27;;;5.13;;
2662;SDS011;49701;48.072;7.800;2023-08-20T19:49:18;6.90;;;5.32;;
2662;SDS011;49701;48.072;7.800;2023-08-20T19:51:46;9.70;;;5.75;;
2662;SDS011;49701;48.072;7.800;2023-08-20T19:54:12;6.65;;;5.68;;
2662;SDS011;49701;48.072;7.800;2023-08-20T19:56:38;10.27;;;6.25;;
2662;SDS011;49701;48.072;7.800;2023-08-20T19:59:04;11.30;;;5.88;;
2662;SDS011;49701;48.072;7.800;2023-08-20T20:08:49;10.23;;;6.30;;
2662;SDS011;49701;48.072;7.800;2023-08-20T20:11:16;9.43;;;6.03;;
2662;SDS011;49701;48.072;7.800;2023-08-20T20:13:41;7.35;;;6.40;;
